• Join FlightAware (Why Join?)
  • Login
  • US Flag 
10:49PM EDT


 

Airport Tracker/Info


-or-


 

Live Flight TrackerFlight Track Log ✈ ASQ4283 ✈ 30-Jun-2013 ✈ KBNA - KIAH

Flight Track Log - Related Links

Times and Time Zones

All times are in EDT time to prevent confusion due to time zone crossing. See the ASQ4283 flight status page for this flight to view local times or setup timezone preferences in your user account.

Time Position Orientation Groundspeed Altitude Reporting Facility
EDT Latitude Longitude Course Direction KTS MPH feet Rate Location/Type
09:16PM 36.1000 -87.0681 270° West  Level FlightAware Approximate
09:17PM 36.0889 -87.2001 248° West  Level FlightAware Approximate
09:18PM 36.0667 -87.3312 270° West  Level FlightAware Approximate
09:19PM 36.0431 -87.4614 253° West  Level FlightAware Approximate
09:20PM 36.0109 -87.5899 253° West  Level FlightAware Approximate
09:21PM 35.9920 -87.7211 255° West  Level FlightAware Approximate
09:22PM 35.9641 -87.8510 255° West  Level FlightAware Approximate
09:23PM 35.9371 -87.9812 256° West  Level FlightAware Approximate
09:24PM 35.9110 -88.1116 256° West  Level FlightAware Approximate
09:25PM 35.8849 -88.2420 256° West  Level FlightAware Approximate
09:26PM 35.8276 -88.3505 248° West  Level FlightAware Approximate
09:27PM 35.7735 -88.4664 237° Southwest  Level FlightAware Approximate
09:28PM 35.7138 -88.5785 237° Southwest  Level FlightAware Approximate
09:29PM 35.6565 -88.6921 244° Southwest  Level FlightAware Approximate
09:30PM 35.6039 -88.8091 238° Southwest  Level FlightAware Approximate
09:31PM 35.5468 -88.9230 239° Southwest  Level FlightAware Approximate
09:32PM 35.4900 -89.0370 239° Southwest  Level FlightAware Approximate
09:33PM 35.4331 -89.1508 238° Southwest  Level FlightAware Approximate
09:34PM 35.3738 -89.2626 235° Southwest  Level FlightAware Approximate
09:35PM 35.3155 -89.3750 242° Southwest  Level FlightAware Approximate
09:36PM 35.2613 -89.4904 236° Southwest  Level FlightAware Approximate
09:37PM 35.2009 -89.6011 236° Southwest  Level FlightAware Approximate
09:38PM 35.1403 -89.7117 236° Southwest  Level FlightAware Approximate
09:39PM 35.0797 -89.8221 236° Southwest  Level FlightAware Approximate
09:40PM 35.0189 -89.9324 236° Southwest  Level FlightAware Approximate
09:41PM 34.9881 -90.0570 261° West  Level FlightAware Approximate
09:42PM 34.9706 -90.1880 261° West  Level FlightAware Approximate
09:43PM 34.9531 -90.3190 261° West  Level FlightAware Approximate
09:44PM 34.9354 -90.4500 261° West  Level FlightAware Approximate
09:45PM 34.9175 -90.5809 261° West  Level FlightAware Approximate
09:46PM 34.8995 -90.7117 261° West  Level FlightAware Approximate
09:47PM 34.8814 -90.8425 260° West  Level FlightAware Approximate
09:48PM 34.8631 -90.9733 260° West  Level FlightAware Approximate
09:49PM 34.8438 -91.1037 259° West  Level FlightAware Approximate
09:50PM 34.8224 -91.2337 259° West  Level FlightAware Approximate
09:51PM 34.8012 -91.3636 259° West  Level FlightAware Approximate
09:52PM 34.7798 -91.4935 259° West  Level FlightAware Approximate
09:53PM 34.7583 -91.6234 259° West  Level FlightAware Approximate
09:54PM 34.7367 -91.7531 259° West  Level FlightAware Approximate
09:55PM 34.7149 -91.8828 258° West  Level FlightAware Approximate
09:56PM 34.6930 -92.0124 258° West  Level FlightAware Approximate
09:57PM 34.6709 -92.1420 258° West  Level FlightAware Approximate
09:58PM 34.5804 -92.1883 192° South  Level FlightAware Approximate
09:59PM 34.4738 -92.2149 192° South  Level FlightAware Approximate
10:00PM 34.3662 -92.2344 188° South  Level FlightAware Approximate
10:01PM 34.2586 -92.2534 188° South  Level FlightAware Approximate
10:02PM 34.1510 -92.2730 189° South  Level FlightAware Approximate
10:03PM 34.0436 -92.2940 189° South  Level FlightAware Approximate
10:04PM 33.9362 -92.3149 189° South  Level FlightAware Approximate
10:05PM 33.8288 -92.3358 189° South  Level FlightAware Approximate
10:06PM 33.7214 -92.3566 189° South  Level FlightAware Approximate
10:07PM 33.6140 -92.3774 189° South  Level FlightAware Approximate
10:08PM 33.5063 -92.3962 188° South  Level FlightAware Approximate
10:09PM 33.3985 -92.4141 188° South  Level FlightAware Approximate
10:10PM 33.2908 -92.4322 188° South  Level FlightAware Approximate
10:11PM 33.1830 -92.4502 188° South  Level FlightAware Approximate
10:12PM 33.0753 -92.4682 188° South  Level FlightAware Approximate
10:13PM 32.9675 -92.4862 188° South  Level FlightAware Approximate
10:14PM 32.8598 -92.5041 188° South  Level FlightAware Approximate
10:15PM 32.7520 -92.5220 188° South  Level FlightAware Approximate
10:16PM 32.6444 -92.5405 189° South  Level FlightAware Approximate
10:17PM 32.5368 -92.5601 189° South  Level FlightAware Approximate
10:18PM 32.4293 -92.5797 189° South  Level FlightAware Approximate
10:19PM 32.3218 -92.5992 189° South  Level FlightAware Approximate
10:20PM 32.2142 -92.6187 189° South  Level FlightAware Approximate
10:21PM 32.1067 -92.6387 190° South  Level FlightAware Approximate
10:22PM 31.9995 -92.6601 190° South  Level FlightAware Approximate
10:23PM 31.9086 -92.7235 220° Southwest  Level FlightAware Approximate
10:24PM 31.8248 -92.8052 220° Southwest  Level FlightAware Approximate
10:25PM 31.7410 -92.8868 220° Southwest  Level FlightAware Approximate
10:26PM 31.6571 -92.9683 220° Southwest  Level FlightAware Approximate
10:27PM 31.5732 -93.0496 220° Southwest  Level FlightAware Approximate
10:28PM 31.4892 -93.1307 219° Southwest  Level FlightAware Approximate
10:29PM 31.4051 -93.2117 219° Southwest  Level FlightAware Approximate
10:30PM 31.3218 -93.2937 218° Southwest  Level FlightAware Approximate
10:31PM 31.2355 -93.3711 218° Southwest  Level FlightAware Approximate
10:32PM 31.1491 -93.4484 217° Southwest  Level FlightAware Approximate
10:33PM 31.0627 -93.5256 217° Southwest  Level FlightAware Approximate
10:34PM 30.9832 -93.6113 229° Southwest  Level FlightAware Approximate
10:35PM 30.8986 -93.6901 216° Southwest  Level FlightAware Approximate
10:36PM 30.8139 -93.7695 221° Southwest  Level FlightAware Approximate
10:37PM 30.7313 -93.8520 221° Southwest  Level FlightAware Approximate
10:38PM 30.6482 -93.9336 218° Southwest  Level FlightAware Approximate
10:39PM 30.5628 -94.0120 218° Southwest  Level FlightAware Approximate
10:40PM 30.4774 -94.0902 218° Southwest  Level FlightAware Approximate
10:41PM 30.3912 -94.1672 218° Southwest  Level FlightAware Approximate
10:42PM 30.3048 -94.2437 217° Southwest  Level FlightAware Approximate
10:43PM 30.2180 -94.3197 217° Southwest  Level FlightAware Approximate
10:44PM 30.1719 -94.4241 257° West  Level FlightAware Approximate
10:45PM 30.1493 -94.5404 263° West  Level FlightAware Approximate
10:46PM 30.1368 -94.6654 263° West  Level FlightAware Approximate
10:47PM 30.1185 -94.7893 259° West  Level FlightAware Approximate
10:48PM 30.1000 -94.9130 270° West  Level FlightAware Approximate
10:49PM 30.1000 -95.0388 270° West  Level FlightAware Approximate
10:50PM 30.1000 -95.1645 270° West  Level FlightAware Approximate
10:51PM 30.0823 -95.2785 210° Southwest  Level FlightAware Approximate